sensor_id;sensor_type;location;lat;lon;timestamp;P1;durP1;ratioP1;P2;durP2;ratioP2
50010;SDS011;35899;50.352;19.390;2023-12-28T00:02:11;72.40;;;29.70;;
50010;SDS011;35899;50.352;19.390;2023-12-28T00:04:38;71.80;;;29.30;;
50010;SDS011;35899;50.352;19.390;2023-12-28T00:07:05;84.50;;;30.30;;
50010;SDS011;35899;50.352;19.390;2023-12-28T00:09:31;78.10;;;30.40;;
50010;SDS011;35899;50.352;19.390;2023-12-28T00:11:58;88.00;;;32.30;;
50010;SDS011;35899;50.352;19.390;2023-12-28T00:14:25;121.50;;;40.00;;
50010;SDS011;35899;50.352;19.390;2023-12-28T00:16:51;208.80;;;64.60;;
50010;SDS011;35899;50.352;19.390;2023-12-28T00:19:18;184.50;;;57.70;;
50010;SDS011;35899;50.352;19.390;2023-12-28T00:21:45;186.80;;;55.20;;
50010;SDS011;35899;50.352;19.390;2023-12-28T00:24:11;181.20;;;57.20;;
50010;SDS011;35899;50.352;19.390;2023-12-28T00:26:38;182.80;;;58.80;;
50010;SDS011;35899;50.352;19.390;2023-12-28T00:29:06;169.20;;;54.90;;
50010;SDS011;35899;50.352;19.390;2023-12-28T00:31:32;151.30;;;48.50;;
50010;SDS011;35899;50.352;19.390;2023-12-28T00:33:59;125.90;;;43.80;;
50010;SDS011;35899;50.352;19.390;2023-12-28T00:36:29;117.70;;;39.70;;
50010;SDS011;35899;50.352;19.390;2023-12-28T00:38:55;117.40;;;40.30;;
50010;SDS011;35899;50.352;19.390;2023-12-28T00:41:23;109.10;;;37.60;;
50010;SDS011;35899;50.352;19.390;2023-12-28T00:43:49;107.20;;;36.00;;
50010;SDS011;35899;50.352;19.390;2023-12-28T00:46:16;90.20;;;34.70;;
50010;SDS011;35899;50.352;19.390;2023-12-28T00:48:43;81.70;;;32.20;;
50010;SDS011;35899;50.352;19.390;2023-12-28T00:51:09;86.30;;;31.50;;
50010;SDS011;35899;50.352;19.390;2023-12-28T00:53:36;84.10;;;31.10;;
50010;SDS011;35899;50.352;19.390;2023-12-28T00:56:02;83.60;;;32.00;;
50010;SDS011;35899;50.352;19.390;2023-12-28T00:58:31;79.40;;;30.90;;
50010;SDS011;35899;50.352;19.390;2023-12-28T01:00:58;74.20;;;30.50;;
50010;SDS011;35899;50.352;19.390;2023-12-28T01:03:25;79.40;;;30.20;;
50010;SDS011;35899;50.352;19.390;2023-12-28T01:05:53;73.40;;;29.10;;
50010;SDS011;35899;50.352;19.390;2023-12-28T01:08:19;69.50;;;27.40;;
50010;SDS011;35899;50.352;19.390;2023-12-28T01:10:46;74.10;;;29.40;;
50010;SDS011;35899;50.352;19.390;2023-12-28T01:13:13;79.80;;;31.90;;
50010;SDS011;35899;50.352;19.390;2023-12-28T01:15:40;120.70;;;45.10;;
50010;SDS011;35899;50.352;19.390;2023-12-28T01:18:07;92.40;;;34.90;;
50010;SDS011;35899;50.352;19.390;2023-12-28T01:20:34;78.20;;;32.60;;
50010;SDS011;35899;50.352;19.390;2023-12-28T01:23:01;77.30;;;32.40;;
50010;SDS011;35899;50.352;19.390;2023-12-28T01:25:28;77.60;;;30.90;;
50010;SDS011;35899;50.352;19.390;2023-12-28T01:27:54;77.00;;;31.10;;
50010;SDS011;35899;50.352;19.390;2023-12-28T01:30:21;80.70;;;30.90;;
50010;SDS011;35899;50.352;19.390;2023-12-28T01:32:49;70.80;;;29.40;;
50010;SDS011;35899;50.352;19.390;2023-12-28T01:35:15;71.50;;;28.50;;
50010;SDS011;35899;50.352;19.390;2023-12-28T01:37:42;72.40;;;28.90;;
50010;SDS011;35899;50.352;19.390;2023-12-28T01:40:08;77.40;;;29.00;;
50010;SDS011;35899;50.352;19.390;2023-12-28T01:42:35;74.50;;;28.50;;
50010;SDS011;35899;50.352;19.390;2023-12-28T01:45:02;70.80;;;28.80;;
50010;SDS011;35899;50.352;19.390;2023-12-28T01:47:29;74.40;;;28.40;;
50010;SDS011;35899;50.352;19.390;2023-12-28T01:49:57;75.60;;;28.90;;
50010;SDS011;35899;50.352;19.390;2023-12-28T01:52:25;76.00;;;28.80;;
50010;SDS011;35899;50.352;19.390;2023-12-28T01:54:53;72.80;;;28.30;;
50010;SDS011;35899;50.352;19.390;2023-12-28T01:57:19;68.50;;;27.90;;
50010;SDS011;35899;50.352;19.390;2023-12-28T01:59:46;74.30;;;29.00;;
50010;SDS011;35899;50.352;19.390;2023-12-28T02:02:13;70.30;;;28.80;;
50010;SDS011;35899;50.352;19.390;2023-12-28T02:04:40;72.80;;;29.00;;
50010;SDS011;35899;50.352;19.390;2023-12-28T02:07:07;72.80;;;27.60;;
50010;SDS011;35899;50.352;19.390;2023-12-28T02:09:35;68.20;;;26.10;;
50010;SDS011;35899;50.352;19.390;2023-12-28T02:12:01;71.20;;;27.10;;
50010;SDS011;35899;50.352;19.390;2023-12-28T02:14:30;67.50;;;25.60;;
50010;SDS011;35899;50.352;19.390;2023-12-28T02:17:01;100.90;;;33.00;;
50010;SDS011;35899;50.352;19.390;2023-12-28T02:19:51;98.60;;;32.80;;
50010;SDS011;35899;50.352;19.390;2023-12-28T02:22:21;79.70;;;28.80;;
50010;SDS011;35899;50.352;19.390;2023-12-28T02:24:59;67.50;;;25.80;;
50010;SDS011;35899;50.352;19.390;2023-12-28T02:27:36;64.20;;;24.80;;
50010;SDS011;35899;50.352;19.390;2023-12-28T02:30:05;71.70;;;27.00;;
50010;SDS011;35899;50.352;19.390;2023-12-28T02:35:23;64.10;;;23.80;;
50010;SDS011;35899;50.352;19.390;2023-12-28T02:37:55;61.70;;;24.10;;
50010;SDS011;35899;50.352;19.390;2023-12-28T02:43:08;118.50;;;37.40;;
50010;SDS011;35899;50.352;19.390;2023-12-28T02:45:36;103.50;;;34.30;;
50010;SDS011;35899;50.352;19.390;2023-12-28T02:48:04;81.80;;;29.40;;
50010;SDS011;35899;50.352;19.390;2023-12-28T02:50:32;98.10;;;34.20;;
50010;SDS011;35899;50.352;19.390;2023-12-28T02:53:00;93.90;;;31.90;;
50010;SDS011;35899;50.352;19.390;2023-12-28T02:55:27;84.20;;;30.40;;
50010;SDS011;35899;50.352;19.390;2023-12-28T02:57:55;101.10;;;36.40;;
50010;SDS011;35899;50.352;19.390;2023-12-28T03:00:23;93.50;;;34.00;;
50010;SDS011;35899;50.352;19.390;2023-12-28T03:02:50;74.30;;;29.80;;
50010;SDS011;35899;50.352;19.390;2023-12-28T03:05:16;70.10;;;26.70;;
50010;SDS011;35899;50.352;19.390;2023-12-28T03:07:43;89.00;;;34.10;;
50010;SDS011;35899;50.352;19.390;2023-12-28T03:10:10;140.80;;;53.60;;
50010;SDS011;35899;50.352;19.390;2023-12-28T03:12:39;73.50;;;29.80;;
50010;SDS011;35899;50.352;19.390;2023-12-28T03:15:06;62.80;;;25.80;;
50010;SDS011;35899;50.352;19.390;2023-12-28T03:17:33;61.60;;;23.60;;
50010;SDS011;35899;50.352;19.390;2023-12-28T03:20:00;55.00;;;22.70;;
50010;SDS011;35899;50.352;19.390;2023-12-28T03:22:27;54.00;;;23.80;;
50010;SDS011;35899;50.352;19.390;2023-12-28T03:24:53;60.70;;;23.50;;
50010;SDS011;35899;50.352;19.390;2023-12-28T03:27:20;57.00;;;22.60;;
50010;SDS011;35899;50.352;19.390;2023-12-28T03:29:47;75.70;;;31.80;;
50010;SDS011;35899;50.352;19.390;2023-12-28T03:32:13;62.20;;;26.00;;
50010;SDS011;35899;50.352;19.390;2023-12-28T03:34:40;58.80;;;25.40;;
50010;SDS011;35899;50.352;19.390;2023-12-28T03:37:06;49.90;;;21.20;;
50010;SDS011;35899;50.352;19.390;2023-12-28T03:39:33;46.10;;;20.90;;
50010;SDS011;35899;50.352;19.390;2023-12-28T03:42:00;47.30;;;20.50;;
50010;SDS011;35899;50.352;19.390;2023-12-28T03:44:26;41.80;;;18.80;;
50010;SDS011;35899;50.352;19.390;2023-12-28T03:46:53;44.40;;;19.40;;
50010;SDS011;35899;50.352;19.390;2023-12-28T03:49:20;46.70;;;19.50;;
50010;SDS011;35899;50.352;19.390;2023-12-28T03:51:47;46.20;;;18.30;;
50010;SDS011;35899;50.352;19.390;2023-12-28T03:54:16;46.40;;;18.60;;
50010;SDS011;35899;50.352;19.390;2023-12-28T03:56:43;44.40;;;18.70;;
50010;SDS011;35899;50.352;19.390;2023-12-28T03:59:09;49.80;;;19.00;;
50010;SDS011;35899;50.352;19.390;2023-12-28T04:01:36;53.90;;;24.00;;
50010;SDS011;35899;50.352;19.390;2023-12-28T04:04:03;48.60;;;20.80;;
50010;SDS011;35899;50.352;19.390;2023-12-28T04:06:30;43.50;;;19.10;;
50010;SDS011;35899;50.352;19.390;2023-12-28T04:08:57;52.40;;;22.20;;
50010;SDS011;35899;50.352;19.390;2023-12-28T04:11:23;55.50;;;22.20;;
50010;SDS011;35899;50.352;19.390;2023-12-28T04:13:51;51.40;;;23.00;;
50010;SDS011;35899;50.352;19.390;2023-12-28T04:16:17;47.20;;;20.70;;
50010;SDS011;35899;50.352;19.390;2023-12-28T04:18:44;53.90;;;21.60;;
50010;SDS011;35899;50.352;19.390;2023-12-28T04:21:11;46.20;;;20.70;;
50010;SDS011;35899;50.352;19.390;2023-12-28T04:23:40;52.50;;;21.90;;
50010;SDS011;35899;50.352;19.390;2023-12-28T04:26:07;48.50;;;20.70;;
50010;SDS011;35899;50.352;19.390;2023-12-28T04:28:34;51.20;;;20.80;;
50010;SDS011;35899;50.352;19.390;2023-12-28T04:31:02;53.10;;;19.40;;
50010;SDS011;35899;50.352;19.390;2023-12-28T04:33:31;42.30;;;19.10;;
50010;SDS011;35899;50.352;19.390;2023-12-28T04:36:02;47.10;;;19.10;;
50010;SDS011;35899;50.352;19.390;2023-12-28T04:38:29;42.70;;;18.10;;
50010;SDS011;35899;50.352;19.390;2023-12-28T04:40:56;43.60;;;19.00;;
50010;SDS011;35899;50.352;19.390;2023-12-28T04:43:23;40.80;;;17.80;;
50010;SDS011;35899;50.352;19.390;2023-12-28T04:45:50;40.90;;;18.00;;
50010;SDS011;35899;50.352;19.390;2023-12-28T04:48:18;41.20;;;16.40;;
50010;SDS011;35899;50.352;19.390;2023-12-28T04:50:45;36.10;;;16.30;;
50010;SDS011;35899;50.352;19.390;2023-12-28T04:53:12;37.50;;;16.40;;
50010;SDS011;35899;50.352;19.390;2023-12-28T04:55:38;41.20;;;17.00;;
50010;SDS011;35899;50.352;19.390;2023-12-28T04:58:05;44.40;;;17.00;;
50010;SDS011;35899;50.352;19.390;2023-12-28T05:00:31;37.20;;;16.60;;
50010;SDS011;35899;50.352;19.390;2023-12-28T05:02:58;41.40;;;16.50;;
50010;SDS011;35899;50.352;19.390;2023-12-28T05:05:24;41.50;;;16.80;;
50010;SDS011;35899;50.352;19.390;2023-12-28T05:07:51;46.50;;;17.70;;
50010;SDS011;35899;50.352;19.390;2023-12-28T05:10:18;42.90;;;16.60;;
50010;SDS011;35899;50.352;19.390;2023-12-28T05:12:44;42.20;;;16.90;;
50010;SDS011;35899;50.352;19.390;2023-12-28T05:15:11;51.00;;;21.00;;
50010;SDS011;35899;50.352;19.390;2023-12-28T05:17:38;58.90;;;22.70;;
50010;SDS011;35899;50.352;19.390;2023-12-28T05:20:05;51.00;;;21.10;;
50010;SDS011;35899;50.352;19.390;2023-12-28T05:22:32;53.60;;;22.10;;
50010;SDS011;35899;50.352;19.390;2023-12-28T05:24:58;61.80;;;21.80;;
50010;SDS011;35899;50.352;19.390;2023-12-28T05:27:25;64.70;;;26.00;;
50010;SDS011;35899;50.352;19.390;2023-12-28T05:29:51;73.70;;;27.60;;
50010;SDS011;35899;50.352;19.390;2023-12-28T05:32:18;66.80;;;27.30;;
50010;SDS011;35899;50.352;19.390;2023-12-28T05:34:44;64.40;;;25.60;;
50010;SDS011;35899;50.352;19.390;2023-12-28T05:37:11;68.60;;;26.20;;
50010;SDS011;35899;50.352;19.390;2023-12-28T05:39:38;67.80;;;28.50;;
50010;SDS011;35899;50.352;19.390;2023-12-28T05:42:04;70.90;;;26.90;;
50010;SDS011;35899;50.352;19.390;2023-12-28T05:44:31;81.20;;;30.50;;
50010;SDS011;35899;50.352;19.390;2023-12-28T05:47:01;88.20;;;33.60;;
50010;SDS011;35899;50.352;19.390;2023-12-28T05:49:27;87.40;;;33.40;;
50010;SDS011;35899;50.352;19.390;2023-12-28T05:51:54;92.30;;;35.00;;
50010;SDS011;35899;50.352;19.390;2023-12-28T05:54:21;94.50;;;40.70;;
50010;SDS011;35899;50.352;19.390;2023-12-28T05:56:48;163.90;;;79.80;;
50010;SDS011;35899;50.352;19.390;2023-12-28T05:59:14;139.00;;;65.00;;
50010;SDS011;35899;50.352;19.390;2023-12-28T06:01:44;88.90;;;37.30;;
50010;SDS011;35899;50.352;19.390;2023-12-28T06:04:11;79.20;;;35.10;;
50010;SDS011;35899;50.352;19.390;2023-12-28T06:06:38;88.40;;;35.10;;
50010;SDS011;35899;50.352;19.390;2023-12-28T06:09:04;75.20;;;30.70;;
50010;SDS011;35899;50.352;19.390;2023-12-28T06:11:31;74.40;;;30.80;;
50010;SDS011;35899;50.352;19.390;2023-12-28T06:13:58;78.20;;;30.50;;
50010;SDS011;35899;50.352;19.390;2023-12-28T06:16:24;77.70;;;30.80;;
50010;SDS011;35899;50.352;19.390;2023-12-28T06:18:51;72.90;;;28.40;;
50010;SDS011;35899;50.352;19.390;2023-12-28T06:21:18;79.50;;;32.10;;
50010;SDS011;35899;50.352;19.390;2023-12-28T06:23:45;74.40;;;30.60;;
50010;SDS011;35899;50.352;19.390;2023-12-28T06:26:11;81.40;;;31.90;;
50010;SDS011;35899;50.352;19.390;2023-12-28T06:28:38;70.80;;;29.40;;
50010;SDS011;35899;50.352;19.390;2023-12-28T06:31:04;82.10;;;32.10;;
50010;SDS011;35899;50.352;19.390;2023-12-28T06:33:31;76.00;;;30.10;;
50010;SDS011;35899;50.352;19.390;2023-12-28T06:35:58;69.10;;;28.70;;
50010;SDS011;35899;50.352;19.390;2023-12-28T06:38:30;78.40;;;31.20;;
50010;SDS011;35899;50.352;19.390;2023-12-28T06:40:57;76.10;;;30.10;;
50010;SDS011;35899;50.352;19.390;2023-12-28T06:43:23;73.10;;;29.20;;
50010;SDS011;35899;50.352;19.390;2023-12-28T06:45:50;57.20;;;26.00;;
50010;SDS011;35899;50.352;19.390;2023-12-28T06:48:16;63.60;;;25.30;;
50010;SDS011;35899;50.352;19.390;2023-12-28T06:50:43;61.30;;;26.50;;
50010;SDS011;35899;50.352;19.390;2023-12-28T06:53:10;61.40;;;25.90;;
50010;SDS011;35899;50.352;19.390;2023-12-28T06:55:37;60.40;;;26.80;;
50010;SDS011;35899;50.352;19.390;2023-12-28T06:58:03;56.70;;;25.20;;
50010;SDS011;35899;50.352;19.390;2023-12-28T07:00:30;56.60;;;24.40;;
50010;SDS011;35899;50.352;19.390;2023-12-28T07:03:02;61.10;;;25.90;;
50010;SDS011;35899;50.352;19.390;2023-12-28T07:05:28;55.40;;;25.10;;
50010;SDS011;35899;50.352;19.390;2023-12-28T07:07:55;56.10;;;25.00;;
50010;SDS011;35899;50.352;19.390;2023-12-28T07:10:22;66.40;;;27.20;;
50010;SDS011;35899;50.352;19.390;2023-12-28T07:12:49;59.70;;;24.90;;
50010;SDS011;35899;50.352;19.390;2023-12-28T07:15:16;63.20;;;26.00;;
50010;SDS011;35899;50.352;19.390;2023-12-28T07:17:43;53.60;;;24.70;;
50010;SDS011;35899;50.352;19.390;2023-12-28T07:20:10;56.60;;;25.40;;
50010;SDS011;35899;50.352;19.390;2023-12-28T07:22:36;66.00;;;26.70;;
50010;SDS011;35899;50.352;19.390;2023-12-28T07:25:06;58.60;;;26.20;;
50010;SDS011;35899;50.352;19.390;2023-12-28T07:27:34;59.10;;;26.60;;
50010;SDS011;35899;50.352;19.390;2023-12-28T07:30:01;67.10;;;27.20;;
50010;SDS011;35899;50.352;19.390;2023-12-28T07:32:30;61.90;;;26.60;;
50010;SDS011;35899;50.352;19.390;2023-12-28T07:34:57;59.90;;;26.20;;
50010;SDS011;35899;50.352;19.390;2023-12-28T07:37:23;58.40;;;26.70;;
50010;SDS011;35899;50.352;19.390;2023-12-28T07:39:50;60.70;;;27.30;;
50010;SDS011;35899;50.352;19.390;2023-12-28T07:42:16;58.60;;;25.80;;
50010;SDS011;35899;50.352;19.390;2023-12-28T07:44:43;62.40;;;26.80;;
50010;SDS011;35899;50.352;19.390;2023-12-28T07:47:10;65.40;;;29.90;;
50010;SDS011;35899;50.352;19.390;2023-12-28T07:49:36;68.00;;;29.50;;
50010;SDS011;35899;50.352;19.390;2023-12-28T07:52:03;65.00;;;29.00;;
50010;SDS011;35899;50.352;19.390;2023-12-28T07:54:30;83.70;;;37.30;;
50010;SDS011;35899;50.352;19.390;2023-12-28T07:56:56;78.50;;;35.00;;
50010;SDS011;35899;50.352;19.390;2023-12-28T07:59:23;63.40;;;28.00;;
50010;SDS011;35899;50.352;19.390;2023-12-28T08:01:50;62.20;;;28.70;;
50010;SDS011;35899;50.352;19.390;2023-12-28T08:04:16;66.70;;;30.20;;
50010;SDS011;35899;50.352;19.390;2023-12-28T08:06:43;75.60;;;33.50;;
50010;SDS011;35899;50.352;19.390;2023-12-28T08:09:09;74.10;;;34.40;;
50010;SDS011;35899;50.352;19.390;2023-12-28T08:11:36;77.90;;;34.90;;
50010;SDS011;35899;50.352;19.390;2023-12-28T08:14:03;69.60;;;33.00;;
50010;SDS011;35899;50.352;19.390;2023-12-28T08:16:29;65.50;;;32.50;;
50010;SDS011;35899;50.352;19.390;2023-12-28T08:18:56;68.90;;;32.80;;
50010;SDS011;35899;50.352;19.390;2023-12-28T08:21:23;72.50;;;35.20;;
50010;SDS011;35899;50.352;19.390;2023-12-28T08:23:49;72.20;;;34.10;;
50010;SDS011;35899;50.352;19.390;2023-12-28T08:26:16;76.40;;;34.70;;
50010;SDS011;35899;50.352;19.390;2023-12-28T08:28:43;91.20;;;37.60;;
50010;SDS011;35899;50.352;19.390;2023-12-28T08:31:09;88.20;;;41.90;;
50010;SDS011;35899;50.352;19.390;2023-12-28T08:33:36;89.90;;;41.00;;
50010;SDS011;35899;50.352;19.390;2023-12-28T08:36:03;78.80;;;38.60;;
50010;SDS011;35899;50.352;19.390;2023-12-28T08:38:29;80.30;;;37.10;;
50010;SDS011;35899;50.352;19.390;2023-12-28T08:40:56;77.80;;;37.00;;
50010;SDS011;35899;50.352;19.390;2023-12-28T08:43:23;84.30;;;39.60;;
50010;SDS011;35899;50.352;19.390;2023-12-28T08:45:50;83.10;;;40.30;;
50010;SDS011;35899;50.352;19.390;2023-12-28T08:48:16;84.10;;;40.50;;
50010;SDS011;35899;50.352;19.390;2023-12-28T08:50:43;87.90;;;41.80;;
50010;SDS011;35899;50.352;19.390;2023-12-28T08:53:10;99.10;;;45.90;;
50010;SDS011;35899;50.352;19.390;2023-12-28T08:55:36;107.10;;;49.50;;
50010;SDS011;35899;50.352;19.390;2023-12-28T08:58:03;83.30;;;40.90;;
50010;SDS011;35899;50.352;19.390;2023-12-28T09:00:30;81.30;;;40.80;;
50010;SDS011;35899;50.352;19.390;2023-12-28T09:02:57;94.60;;;45.70;;
50010;SDS011;35899;50.352;19.390;2023-12-28T09:05:23;104.20;;;49.40;;
50010;SDS011;35899;50.352;19.390;2023-12-28T09:07:50;99.30;;;46.80;;
50010;SDS011;35899;50.352;19.390;2023-12-28T09:10:16;105.40;;;51.70;;
50010;SDS011;35899;50.352;19.390;2023-12-28T09:12:43;115.60;;;55.90;;
50010;SDS011;35899;50.352;19.390;2023-12-28T09:15:09;99.40;;;50.70;;
50010;SDS011;35899;50.352;19.390;2023-12-28T09:17:36;95.00;;;48.90;;
50010;SDS011;35899;50.352;19.390;2023-12-28T09:20:03;76.30;;;40.90;;
50010;SDS011;35899;50.352;19.390;2023-12-28T09:22:30;63.60;;;34.90;;
50010;SDS011;35899;50.352;19.390;2023-12-28T09:24:58;63.90;;;34.60;;
50010;SDS011;35899;50.352;19.390;2023-12-28T09:28:19;48.00;;;27.10;;
50010;SDS011;35899;50.352;19.390;2023-12-28T09:30:45;46.30;;;26.90;;
50010;SDS011;35899;50.352;19.390;2023-12-28T09:33:12;41.10;;;23.30;;
50010;SDS011;35899;50.352;19.390;2023-12-28T09:35:39;26.60;;;16.60;;
50010;SDS011;35899;50.352;19.390;2023-12-28T09:38:06;26.70;;;16.60;;
50010;SDS011;35899;50.352;19.390;2023-12-28T09:40:33;28.20;;;17.30;;
50010;SDS011;35899;50.352;19.390;2023-12-28T09:46:11;23.80;;;14.00;;
50010;SDS011;35899;50.352;19.390;2023-12-28T09:48:38;21.40;;;12.80;;
50010;SDS011;35899;50.352;19.390;2023-12-28T09:51:05;22.80;;;13.50;;
50010;SDS011;35899;50.352;19.390;2023-12-28T09:53:32;22.60;;;12.80;;
50010;SDS011;35899;50.352;19.390;2023-12-28T09:56:02;19.90;;;11.90;;
50010;SDS011;35899;50.352;19.390;2023-12-28T09:58:32;18.80;;;12.50;;
50010;SDS011;35899;50.352;19.390;2023-12-28T10:01:04;21.30;;;12.40;;
50010;SDS011;35899;50.352;19.390;2023-12-28T10:03:32;24.60;;;14.50;;
50010;SDS011;35899;50.352;19.390;2023-12-28T10:05:59;20.00;;;11.50;;
50010;SDS011;35899;50.352;19.390;2023-12-28T10:08:26;23.00;;;13.60;;
50010;SDS011;35899;50.352;19.390;2023-12-28T10:10:53;22.60;;;12.90;;
50010;SDS011;35899;50.352;19.390;2023-12-28T10:13:20;19.30;;;11.70;;
50010;SDS011;35899;50.352;19.390;2023-12-28T10:15:47;22.00;;;11.50;;
50010;SDS011;35899;50.352;19.390;2023-12-28T10:18:18;21.10;;;11.80;;
50010;SDS011;35899;50.352;19.390;2023-12-28T10:20:51;21.30;;;12.10;;
50010;SDS011;35899;50.352;19.390;2023-12-28T10:23:19;20.10;;;12.20;;
50010;SDS011;35899;50.352;19.390;2023-12-28T10:25:46;19.50;;;11.40;;
50010;SDS011;35899;50.352;19.390;2023-12-28T10:28:13;22.40;;;12.50;;
50010;SDS011;35899;50.352;19.390;2023-12-28T10:30:40;16.60;;;11.30;;
50010;SDS011;35899;50.352;19.390;2023-12-28T10:33:07;23.70;;;11.70;;
50010;SDS011;35899;50.352;19.390;2023-12-28T10:35:34;18.10;;;10.30;;
50010;SDS011;35899;50.352;19.390;2023-12-28T10:38:01;18.30;;;10.10;;
50010;SDS011;35899;50.352;19.390;2023-12-28T10:40:28;14.70;;;8.60;;
50010;SDS011;35899;50.352;19.390;2023-12-28T10:42:57;18.20;;;9.70;;
50010;SDS011;35899;50.352;19.390;2023-12-28T10:45:25;16.30;;;9.30;;
50010;SDS011;35899;50.352;19.390;2023-12-28T10:50:32;18.10;;;9.90;;
50010;SDS011;35899;50.352;19.390;2023-12-28T10:58:50;7.40;;;5.30;;
50010;SDS011;35899;50.352;19.390;2023-12-28T11:03:55;7.80;;;5.00;;
50010;SDS011;35899;50.352;19.390;2023-12-28T11:06:28;7.20;;;4.60;;
50010;SDS011;35899;50.352;19.390;2023-12-28T11:08:57;7.20;;;5.00;;
50010;SDS011;35899;50.352;19.390;2023-12-28T11:11:26;6.60;;;4.50;;
50010;SDS011;35899;50.352;19.390;2023-12-28T11:13:54;7.10;;;4.30;;
50010;SDS011;35899;50.352;19.390;2023-12-28T11:16:22;4.80;;;3.80;;
50010;SDS011;35899;50.352;19.390;2023-12-28T11:18:51;6.40;;;4.00;;
50010;SDS011;35899;50.352;19.390;2023-12-28T11:21:19;6.10;;;4.20;;
50010;SDS011;35899;50.352;19.390;2023-12-28T11:23:46;7.00;;;3.90;;
50010;SDS011;35899;50.352;19.390;2023-12-28T11:26:20;5.30;;;4.00;;
50010;SDS011;35899;50.352;19.390;2023-12-28T11:28:47;8.00;;;4.30;;
50010;SDS011;35899;50.352;19.390;2023-12-28T11:31:26;5.30;;;4.00;;
50010;SDS011;35899;50.352;19.390;2023-12-28T11:33:53;7.40;;;3.50;;
50010;SDS011;35899;50.352;19.390;2023-12-28T11:36:32;6.20;;;4.00;;
50010;SDS011;35899;50.352;19.390;2023-12-28T11:39:05;7.50;;;4.20;;
50010;SDS011;35899;50.352;19.390;2023-12-28T11:41:33;4.90;;;3.50;;
50010;SDS011;35899;50.352;19.390;2023-12-28T11:44:02;6.40;;;3.70;;
50010;SDS011;35899;50.352;19.390;2023-12-28T11:46:30;6.80;;;4.10;;
50010;SDS011;35899;50.352;19.390;2023-12-28T11:49:04;6.20;;;3.90;;
50010;SDS011;35899;50.352;19.390;2023-12-28T11:51:36;6.20;;;4.00;;
50010;SDS011;35899;50.352;19.390;2023-12-28T11:54:05;7.70;;;4.00;;
50010;SDS011;35899;50.352;19.390;2023-12-28T11:56:32;5.70;;;3.70;;
50010;SDS011;35899;50.352;19.390;2023-12-28T11:58:59;8.60;;;4.50;;
50010;SDS011;35899;50.352;19.390;2023-12-28T12:01:25;7.70;;;4.00;;
50010;SDS011;35899;50.352;19.390;2023-12-28T12:03:53;6.40;;;3.80;;
50010;SDS011;35899;50.352;19.390;2023-12-28T12:06:20;7.30;;;3.90;;
50010;SDS011;35899;50.352;19.390;2023-12-28T12:08:47;7.90;;;4.50;;
50010;SDS011;35899;50.352;19.390;2023-12-28T12:11:16;6.60;;;4.10;;
50010;SDS011;35899;50.352;19.390;2023-12-28T12:13:43;6.10;;;4.30;;
50010;SDS011;35899;50.352;19.390;2023-12-28T12:16:10;7.60;;;4.60;;
50010;SDS011;35899;50.352;19.390;2023-12-28T12:18:36;6.70;;;4.30;;
50010;SDS011;35899;50.352;19.390;2023-12-28T12:21:03;9.50;;;4.50;;
50010;SDS011;35899;50.352;19.390;2023-12-28T12:23:30;7.20;;;4.30;;
50010;SDS011;35899;50.352;19.390;2023-12-28T12:25:57;9.30;;;4.80;;
50010;SDS011;35899;50.352;19.390;2023-12-28T12:28:25;9.10;;;4.70;;
50010;SDS011;35899;50.352;19.390;2023-12-28T12:30:55;8.90;;;5.20;;
50010;SDS011;35899;50.352;19.390;2023-12-28T12:33:22;10.20;;;5.50;;
50010;SDS011;35899;50.352;19.390;2023-12-28T12:35:50;10.00;;;5.00;;
50010;SDS011;35899;50.352;19.390;2023-12-28T12:38:17;10.50;;;5.20;;
50010;SDS011;35899;50.352;19.390;2023-12-28T12:40:43;9.40;;;5.60;;
50010;SDS011;35899;50.352;19.390;2023-12-28T12:43:10;10.80;;;5.50;;
50010;SDS011;35899;50.352;19.390;2023-12-28T12:45:37;11.50;;;5.80;;
50010;SDS011;35899;50.352;19.390;2023-12-28T12:48:04;11.60;;;5.50;;
50010;SDS011;35899;50.352;19.390;2023-12-28T12:50:32;9.20;;;5.00;;
50010;SDS011;35899;50.352;19.390;2023-12-28T12:52:59;10.60;;;6.10;;
50010;SDS011;35899;50.352;19.390;2023-12-28T12:55:26;10.70;;;5.90;;
50010;SDS011;35899;50.352;19.390;2023-12-28T12:57:53;11.70;;;6.60;;
50010;SDS011;35899;50.352;19.390;2023-12-28T13:00:20;11.00;;;6.30;;
50010;SDS011;35899;50.352;19.390;2023-12-28T13:02:47;11.60;;;5.50;;
50010;SDS011;35899;50.352;19.390;2023-12-28T13:05:13;9.90;;;5.60;;
50010;SDS011;35899;50.352;19.390;2023-12-28T13:07:40;11.50;;;6.20;;
50010;SDS011;35899;50.352;19.390;2023-12-28T13:10:07;9.10;;;5.20;;
50010;SDS011;35899;50.352;19.390;2023-12-28T13:12:34;11.60;;;5.50;;
50010;SDS011;35899;50.352;19.390;2023-12-28T13:15:01;8.40;;;5.30;;
50010;SDS011;35899;50.352;19.390;2023-12-28T13:17:28;10.40;;;5.20;;
50010;SDS011;35899;50.352;19.390;2023-12-28T13:19:55;8.80;;;5.40;;
50010;SDS011;35899;50.352;19.390;2023-12-28T13:22:22;9.80;;;5.80;;
50010;SDS011;35899;50.352;19.390;2023-12-28T13:24:48;12.50;;;5.70;;
50010;SDS011;35899;50.352;19.390;2023-12-28T13:27:16;9.70;;;5.20;;
50010;SDS011;35899;50.352;19.390;2023-12-28T13:29:43;12.30;;;6.20;;
50010;SDS011;35899;50.352;19.390;2023-12-28T13:32:09;12.20;;;5.90;;
50010;SDS011;35899;50.352;19.390;2023-12-28T13:34:36;10.80;;;5.90;;
50010;SDS011;35899;50.352;19.390;2023-12-28T13:37:03;10.90;;;4.90;;
50010;SDS011;35899;50.352;19.390;2023-12-28T13:39:30;10.70;;;5.60;;
50010;SDS011;35899;50.352;19.390;2023-12-28T13:41:57;10.10;;;5.20;;
50010;SDS011;35899;50.352;19.390;2023-12-28T13:44:24;10.90;;;5.20;;
50010;SDS011;35899;50.352;19.390;2023-12-28T13:46:50;11.70;;;6.00;;
50010;SDS011;35899;50.352;19.390;2023-12-28T13:49:17;11.30;;;6.20;;
50010;SDS011;35899;50.352;19.390;2023-12-28T13:51:44;11.60;;;6.10;;
50010;SDS011;35899;50.352;19.390;2023-12-28T13:54:10;12.90;;;7.00;;
50010;SDS011;35899;50.352;19.390;2023-12-28T13:56:37;13.20;;;6.90;;
50010;SDS011;35899;50.352;19.390;2023-12-28T13:59:03;13.60;;;7.20;;
50010;SDS011;35899;50.352;19.390;2023-12-28T14:01:30;13.00;;;7.10;;
50010;SDS011;35899;50.352;19.390;2023-12-28T14:03:58;15.60;;;7.60;;
50010;SDS011;35899;50.352;19.390;2023-12-28T14:06:27;14.10;;;8.10;;
50010;SDS011;35899;50.352;19.390;2023-12-28T14:08:53;19.10;;;8.10;;
50010;SDS011;35899;50.352;19.390;2023-12-28T14:11:20;18.10;;;9.10;;
50010;SDS011;35899;50.352;19.390;2023-12-28T14:13:47;16.50;;;7.60;;
50010;SDS011;35899;50.352;19.390;2023-12-28T14:16:14;17.70;;;8.40;;
50010;SDS011;35899;50.352;19.390;2023-12-28T14:18:41;16.40;;;8.10;;
50010;SDS011;35899;50.352;19.390;2023-12-28T14:21:10;16.10;;;8.60;;
50010;SDS011;35899;50.352;19.390;2023-12-28T14:23:37;24.90;;;11.30;;
50010;SDS011;35899;50.352;19.390;2023-12-28T14:26:11;45.30;;;17.10;;
50010;SDS011;35899;50.352;19.390;2023-12-28T14:28:39;20.80;;;9.30;;
50010;SDS011;35899;50.352;19.390;2023-12-28T14:31:07;28.60;;;11.20;;
50010;SDS011;35899;50.352;19.390;2023-12-28T14:33:38;18.60;;;8.80;;
50010;SDS011;35899;50.352;19.390;2023-12-28T14:36:08;17.50;;;8.50;;